createdAt,value
2018-03-22T00:02:20.933Z,102926.17
2018-03-22T00:05:24.533Z,102920.13
2018-03-22T00:08:29.888Z,102919.30
2018-03-22T00:11:34.309Z,102907.48
2018-03-22T00:14:37.802Z,102904.97
2018-03-22T00:17:42.283Z,102905.81
2018-03-22T00:20:45.721Z,102898.52
2018-03-22T00:23:49.274Z,102895.47
2018-03-22T00:26:52.674Z,102894.09
2018-03-22T00:29:56.068Z,102895.26
2018-03-22T00:32:59.585Z,102889.55
2018-03-22T00:36:03.117Z,102893.94
2018-03-22T00:39:06.604Z,102884.98
2018-03-22T00:42:10.097Z,102881.32
2018-03-22T00:45:13.638Z,102880.10
2018-03-22T00:48:17.089Z,102877.68
2018-03-22T00:51:20.518Z,102869.11
2018-03-22T00:54:27.617Z,102866.46
2018-03-22T00:57:32.249Z,102863.25
2018-03-22T01:00:41.428Z,102862.63
2018-03-22T01:03:50.481Z,102860.11
2018-03-22T01:06:53.877Z,102846.53
2018-03-22T01:09:57.367Z,102850.27
2018-03-22T01:13:12.523Z,102839.55
2018-03-22T01:16:15.913Z,102832.79
2018-03-22T01:19:20.313Z,102828.64
2018-03-22T01:22:24.771Z,102830.05
2018-03-22T01:25:32.653Z,102822.95
2018-03-22T01:28:40.257Z,102822.37
2018-03-22T01:31:51.009Z,102821.56
2018-03-22T01:34:59.712Z,102822.69
2018-03-22T01:38:05.247Z,102818.15
2018-03-22T01:41:09.697Z,102819.71
2018-03-22T01:44:16.941Z,102815.50
2018-03-22T01:47:20.455Z,102812.74
2018-03-22T01:50:23.933Z,102808.67
2018-03-22T01:53:27.420Z,102807.06
2018-03-22T01:56:32.785Z,102803.63
2018-03-22T01:59:36.161Z,102799.15
2018-03-22T02:02:49.181Z,102794.14
2018-03-22T02:05:54.537Z,102796.13
2018-03-22T02:09:04.165Z,102782.92
2018-03-22T02:12:07.470Z,102781.68
2018-03-22T02:15:10.825Z,102782.84
2018-03-22T02:18:20.064Z,102782.82
2018-03-22T02:21:25.488Z,102787.61
2018-03-22T02:24:28.951Z,102784.15
2018-03-22T02:27:33.450Z,102782.97
2018-03-22T02:30:36.941Z,102784.70
2018-03-22T02:33:41.321Z,102781.02
2018-03-22T02:36:54.481Z,102779.30
2018-03-22T02:39:58.014Z,102768.87
2018-03-22T02:43:01.432Z,102767.47
2018-03-22T02:46:09.340Z,102763.20
2018-03-22T02:49:12.786Z,102760.96
2018-03-22T02:52:21.754Z,102761.41
2018-03-22T02:55:28.985Z,102759.12
2018-03-22T02:58:38.912Z,102754.27
2018-03-22T03:01:46.941Z,102745.42
2018-03-22T03:04:50.286Z,102743.48
2018-03-22T03:07:53.902Z,102736.94
2018-03-22T03:10:58.269Z,102738.88
2018-03-22T03:14:01.732Z,102734.62
2018-03-22T03:17:05.159Z,102721.70
2018-03-22T03:20:08.729Z,102723.57
2018-03-22T03:23:15.984Z,102716.50
2018-03-22T03:26:19.449Z,102703.26
2018-03-22T03:32:51.028Z,102694.94
2018-03-22T03:35:56.528Z,102685.52
2018-03-22T03:38:59.953Z,102681.88
2018-03-22T03:42:03.404Z,102684.06
2018-03-22T03:45:07.776Z,102680.96
2018-03-22T03:48:15.656Z,102678.78
2018-03-22T03:51:20.152Z,102674.78
2018-03-22T03:54:23.625Z,102670.05
2018-03-22T03:57:28.119Z,102668.58
2018-03-22T04:00:31.529Z,102671.12
2018-03-22T04:03:35.033Z,102677.17
2018-03-22T04:06:38.414Z,102679.30
2018-03-22T04:09:43.881Z,102672.58
2018-03-22T04:12:47.311Z,102669.50
2018-03-22T04:15:50.789Z,102662.63
2018-03-22T04:18:58.362Z,102660.63
2018-03-22T04:22:01.694Z,102652.35
2018-03-22T04:25:06.262Z,102650.64
2018-03-22T04:28:11.831Z,102642.68
2018-03-22T04:31:19.189Z,102640.89
2018-03-22T04:34:22.646Z,102634.98
2018-03-22T04:37:31.137Z,102634.41
2018-03-22T04:40:36.560Z,102638.76
2018-03-22T04:43:40.013Z,102637.18
2018-03-22T04:46:44.899Z,102630.54
2018-03-22T04:49:48.373Z,102625.87
2018-03-22T04:52:52.754Z,102621.70
2018-03-22T04:55:58.293Z,102611.96
2018-03-22T04:59:02.091Z,102604.64
2018-03-22T05:02:06.647Z,102600.12
2018-03-22T05:05:10.105Z,102599.86
2018-03-22T05:08:13.604Z,102597.79
2018-03-22T05:11:18.610Z,102599.55
2018-03-22T05:14:22.029Z,102603.54
2018-03-22T05:17:30.173Z,102598.34
2018-03-22T05:20:33.696Z,102601.75
2018-03-22T05:23:38.156Z,102593.38
2018-03-22T05:26:42.409Z,102591.69
2018-03-22T05:29:46.764Z,102585.49
2018-03-22T05:32:55.677Z,102588.18
2018-03-22T05:35:59.183Z,102584.93
2018-03-22T05:39:06.693Z,102583.28
2018-03-22T05:42:10.108Z,102576.67
2018-03-22T05:45:13.581Z,102568.32
2018-03-22T05:48:16.897Z,102554.76
2018-03-22T05:51:20.409Z,102557.15
2018-03-22T05:54:24.878Z,102551.06
2018-03-22T05:57:30.078Z,102542.68
2018-03-22T06:00:33.431Z,102539.89
2018-03-22T06:03:41.359Z,102535.11
2018-03-22T06:06:44.689Z,102533.94
2018-03-22T06:09:49.060Z,102529.94
2018-03-22T06:12:52.473Z,102528.72
2018-03-22T06:15:55.820Z,102526.24
2018-03-22T06:19:00.103Z,102522.28
2018-03-22T06:22:03.479Z,102519.19
2018-03-22T06:25:06.885Z,102506.43
2018-03-22T06:28:12.200Z,102496.99
2018-03-22T06:31:15.483Z,102499.23
2018-03-22T06:34:20.869Z,102494.89
2018-03-22T06:37:31.806Z,102503.15
2018-03-22T06:40:35.276Z,102502.73
2018-03-22T06:43:38.540Z,102496.12
2018-03-22T06:46:42.997Z,102498.30
2018-03-22T06:49:46.406Z,102491.89
2018-03-22T06:52:49.849Z,102485.09
2018-03-22T06:55:53.180Z,102483.76
2018-03-22T06:58:57.528Z,102488.80
2018-03-22T07:02:02.981Z,102493.67
2018-03-22T07:05:07.357Z,102500.85
2018-03-22T07:08:10.770Z,102492.15
2018-03-22T07:11:14.184Z,102490.67
2018-03-22T07:14:19.912Z,102500.82
2018-03-22T07:17:30.380Z,102499.22
2018-03-22T07:20:33.834Z,102494.28
2018-03-22T07:23:37.316Z,102491.96
2018-03-22T07:26:50.717Z,102488.73
2018-03-22T07:29:57.066Z,102488.22
2018-03-22T07:33:01.091Z,102485.16
2018-03-22T07:36:04.541Z,102482.09
2018-03-22T07:39:13.802Z,102479.69
2018-03-22T07:42:17.960Z,102479.55
2018-03-22T07:45:22.107Z,102473.83
2018-03-22T07:48:25.316Z,102474.52
2018-03-22T07:51:28.464Z,102468.05
2018-03-22T07:54:32.021Z,102468.72
2018-03-22T07:57:37.204Z,102452.41
2018-03-22T08:00:42.483Z,102454.18
2018-03-22T08:03:51.861Z,102458.79
2018-03-22T08:06:57.032Z,102454.57
2018-03-22T08:10:00.245Z,102447.35
2018-03-22T08:13:07.817Z,102443.91
2018-03-22T08:16:11.049Z,102444.37
2018-03-22T08:19:16.327Z,102446.58
2018-03-22T08:22:24.977Z,102432.92
2018-03-22T08:25:28.176Z,102416.96
2018-03-22T08:28:32.328Z,102412.78
2018-03-22T08:31:36.534Z,102407.26
2018-03-22T08:34:48.166Z,102410.41
2018-03-22T08:37:53.296Z,102403.96
2018-03-22T08:40:59.794Z,102406.27
2018-03-22T08:44:03.007Z,102396.55
2018-03-22T08:47:07.570Z,102391.71
2018-03-22T08:50:16.097Z,102383.65
2018-03-22T08:53:19.599Z,102375.96
2018-03-22T08:56:22.912Z,102364.73
2018-03-22T08:59:29.974Z,102368.99
2018-03-22T09:02:33.341Z,102364.25
2018-03-22T09:05:44.150Z,102357.49
2018-03-22T09:08:48.049Z,102370.19
2018-03-22T09:11:51.572Z,102361.68
2018-03-22T09:15:07.342Z,102360.78
2018-03-22T09:18:10.557Z,102362.47
2018-03-22T09:21:14.074Z,102356.39
2018-03-22T09:24:17.293Z,102353.22
2018-03-22T09:27:21.729Z,102349.59
2018-03-22T09:30:24.945Z,102343.69
2018-03-22T09:33:28.218Z,102344.38
2018-03-22T09:36:31.410Z,102342.21
2018-03-22T09:39:34.578Z,102342.81
2018-03-22T09:42:37.828Z,102333.49
2018-03-22T09:45:41.012Z,102331.33
2018-03-22T09:48:44.192Z,102337.64
2018-03-22T09:51:47.375Z,102337.99
2018-03-22T09:54:51.618Z,102340.56
2018-03-22T09:57:54.827Z,102343.68
2018-03-22T10:00:58.108Z,102347.43
2018-03-22T10:04:01.264Z,102347.18
2018-03-22T10:07:04.503Z,102345.28
2018-03-22T10:10:07.786Z,102352.54
2018-03-22T10:13:11.042Z,102345.00
2018-03-22T10:16:14.282Z,102339.91
2018-03-22T10:19:17.474Z,102327.23
2018-03-22T10:22:21.354Z,102322.84
2018-03-22T10:25:24.581Z,102317.94
2018-03-22T10:28:27.799Z,102318.72
2018-03-22T10:31:31.102Z,102306.64
2018-03-22T10:34:34.283Z,102299.54
2018-03-22T10:37:37.460Z,102303.84
2018-03-22T10:40:40.692Z,102290.36
2018-03-22T10:43:43.863Z,102290.18
2018-03-22T10:46:48.034Z,102282.29
2018-03-22T10:49:52.417Z,102277.24
2018-03-22T10:52:55.579Z,102272.45
2018-03-22T10:55:58.781Z,102266.84
2018-03-22T10:59:01.938Z,102259.58
2018-03-22T11:02:09.370Z,102258.86
2018-03-22T11:05:12.520Z,102245.13
2018-03-22T11:08:15.765Z,102237.16
2018-03-22T11:11:19.954Z,102237.80
2018-03-22T11:14:23.195Z,102234.04
2018-03-22T11:17:26.405Z,102225.07
2018-03-22T11:20:29.608Z,102223.75
2018-03-22T11:23:32.877Z,102216.94
2018-03-22T11:26:36.100Z,102212.95
2018-03-22T11:29:39.282Z,102204.07
2018-03-22T11:32:42.585Z,102199.39
2018-03-22T11:35:45.756Z,102197.46
2018-03-22T11:38:49.936Z,102201.97
2018-03-22T11:41:53.118Z,102184.89
2018-03-22T11:44:56.346Z,102188.95
2018-03-22T11:47:59.563Z,102180.37
2018-03-22T11:51:02.859Z,102172.88
2018-03-22T11:54:06.088Z,102157.47
2018-03-22T11:57:09.303Z,102153.20
2018-03-22T12:00:12.557Z,102147.07
2018-03-22T12:03:15.875Z,102139.01
2018-03-22T12:06:19.607Z,102144.37
2018-03-22T12:09:22.843Z,102136.73
2018-03-22T12:12:26.134Z,102125.05
2018-03-22T12:15:29.335Z,102120.49
2018-03-22T12:18:32.590Z,102120.55
2018-03-22T12:21:35.880Z,102114.28
2018-03-22T12:24:39.034Z,102106.36
2018-03-22T12:27:42.259Z,102102.68
2018-03-22T12:30:45.551Z,102093.47
2018-03-22T12:33:49.588Z,102080.02
2018-03-22T12:36:52.810Z,102066.86
2018-03-22T12:39:56.058Z,102056.77
2018-03-22T12:42:59.237Z,102055.24
2018-03-22T12:46:02.574Z,102045.63
2018-03-22T12:49:05.794Z,102037.41
2018-03-22T12:52:09.010Z,102025.68
2018-03-22T12:55:12.198Z,102029.65
2018-03-22T12:58:15.524Z,102025.41
2018-03-22T13:01:19.579Z,102022.36
2018-03-22T13:04:22.742Z,102033.17
2018-03-22T13:07:26.046Z,102034.13
2018-03-22T13:10:29.376Z,102037.09
2018-03-22T13:13:32.571Z,102026.45
2018-03-22T13:16:35.803Z,102030.45
2018-03-22T13:19:39.089Z,102024.12
2018-03-22T13:22:42.303Z,102019.19
2018-03-22T13:25:45.546Z,102017.60
2018-03-22T13:28:48.728Z,102019.34
2018-03-22T13:31:52.444Z,102016.15
2018-03-22T13:34:55.642Z,102011.68
2018-03-22T13:37:58.894Z,102007.19
2018-03-22T13:41:02.207Z,102005.26
2018-03-22T13:44:05.414Z,101994.15
2018-03-22T13:47:09.434Z,101996.66
2018-03-22T13:50:12.755Z,101991.18
2018-03-22T13:53:15.970Z,101993.32
2018-03-22T13:56:19.164Z,101993.86
2018-03-22T13:59:23.453Z,101981.23
2018-03-22T14:02:26.732Z,101978.20
2018-03-22T14:05:29.993Z,101975.51
2018-03-22T14:08:33.278Z,101968.08
2018-03-22T14:11:36.645Z,101956.94
2018-03-22T14:14:39.790Z,101957.95
2018-03-22T14:17:43.223Z,101955.09
2018-03-22T14:20:46.375Z,101952.95
2018-03-22T14:23:49.600Z,101948.30
2018-03-22T14:26:52.894Z,101941.04
2018-03-22T14:29:56.088Z,101937.98
2018-03-22T14:32:59.401Z,101934.73
2018-03-22T14:36:02.589Z,101931.93
2018-03-22T14:39:05.967Z,101938.94
2018-03-22T14:42:09.270Z,101929.81
2018-03-22T14:45:12.571Z,101923.11
2018-03-22T14:48:15.742Z,101917.28
2018-03-22T14:51:19.826Z,101912.91
2018-03-22T14:54:23.042Z,101910.48
2018-03-22T14:57:26.283Z,101907.79
2018-03-22T15:00:29.620Z,101905.24
2018-03-22T15:03:33.123Z,101905.93
2018-03-22T15:06:36.390Z,101898.71
2018-03-22T15:09:39.767Z,101887.09
2018-03-22T15:12:42.983Z,101883.88
2018-03-22T15:15:46.214Z,101892.74
2018-03-22T15:18:49.910Z,101888.41
2018-03-22T15:21:53.413Z,101888.81
2018-03-22T15:24:56.708Z,101892.69
2018-03-22T15:28:00.223Z,101884.54
2018-03-22T15:31:03.590Z,101886.86
2018-03-22T15:34:07.212Z,101885.43
2018-03-22T15:37:10.430Z,101880.61
2018-03-22T15:40:13.644Z,101880.93
2018-03-22T15:43:16.850Z,101884.59
2018-03-22T15:46:20.900Z,101886.37
2018-03-22T15:49:24.166Z,101889.23
2018-03-22T15:52:27.464Z,101881.84
2018-03-22T15:55:30.640Z,101878.07
2018-03-22T15:58:33.871Z,101879.41
2018-03-22T16:01:37.205Z,101875.29
2018-03-22T16:04:40.414Z,101871.93
2018-03-22T16:07:43.727Z,101868.32
2018-03-22T16:10:46.956Z,101861.78
2018-03-22T16:13:50.201Z,101863.46
2018-03-22T16:16:53.433Z,101856.15
2018-03-22T16:19:56.648Z,101853.83
2018-03-22T16:22:59.872Z,101860.75
2018-03-22T16:26:03.050Z,101860.66
2018-03-22T16:29:06.360Z,101863.77
2018-03-22T16:32:09.624Z,101864.48
2018-03-22T16:35:12.834Z,101859.65
2018-03-22T16:38:16.102Z,101862.73
2018-03-22T16:41:19.335Z,101859.19
2018-03-22T16:44:24.100Z,101863.27
2018-03-22T16:47:27.345Z,101863.87
2018-03-22T16:50:30.490Z,101861.99
2018-03-22T16:53:33.736Z,101859.15
2018-03-22T16:56:37.175Z,101854.23
2018-03-22T16:59:40.529Z,101848.73
2018-03-22T17:02:43.834Z,101846.98
2018-03-22T17:05:47.003Z,101849.26
2018-03-22T17:08:51.374Z,101850.47
2018-03-22T17:11:54.655Z,101849.80
2018-03-22T17:14:58.079Z,101845.38
2018-03-22T17:18:01.201Z,101846.32
2018-03-22T17:21:04.402Z,101848.03
2018-03-22T17:24:07.753Z,101846.70
2018-03-22T17:27:11.252Z,101846.96
2018-03-22T17:30:14.552Z,101845.60
2018-03-22T17:33:17.813Z,101845.65
2018-03-22T17:36:21.459Z,101845.00
2018-03-22T17:39:24.851Z,101844.33
2018-03-22T17:42:28.250Z,101843.22
2018-03-22T17:45:31.538Z,101843.94
2018-03-22T17:48:34.785Z,101847.96
2018-03-22T17:51:37.984Z,101848.95
2018-03-22T17:54:41.194Z,101844.46
2018-03-22T17:57:45.884Z,101844.05
2018-03-22T18:00:49.153Z,101840.49
2018-03-22T18:03:52.483Z,101844.38
2018-03-22T18:06:55.768Z,101846.53
2018-03-22T18:09:59.161Z,101847.13
2018-03-22T18:13:02.464Z,101846.11
2018-03-22T18:16:05.812Z,101849.56
2018-03-22T18:19:21.734Z,101846.03
2018-03-22T18:22:24.989Z,101852.58
2018-03-22T18:25:30.192Z,101851.72
2018-03-22T18:28:38.166Z,101849.23
2018-03-22T18:31:41.689Z,101849.30
2018-03-22T18:34:46.234Z,101846.78
2018-03-22T18:37:49.491Z,101848.00
2018-03-22T18:40:52.829Z,101848.76
2018-03-22T18:43:56.241Z,101848.66
2018-03-22T18:47:00.514Z,101844.22
2018-03-22T18:50:03.726Z,101837.87
2018-03-22T18:53:07.030Z,101840.35
2018-03-22T18:56:10.326Z,101844.57
2018-03-22T18:59:19.342Z,101842.08
2018-03-22T19:02:22.510Z,101841.90
2018-03-22T19:05:27.855Z,101843.73
2018-03-22T19:08:31.078Z,101842.61
2018-03-22T19:11:37.429Z,101842.63
2018-03-22T19:14:43.728Z,101838.81
2018-03-22T19:17:48.151Z,101832.60
2018-03-22T19:24:06.518Z,101830.13
2018-03-22T19:27:10.018Z,101829.95
2018-03-22T19:30:13.264Z,101829.35
2018-03-22T19:33:18.048Z,101834.48
2018-03-22T19:36:21.575Z,101825.81
2018-03-22T19:39:24.883Z,101828.12
2018-03-22T19:42:28.209Z,101823.72
2018-03-22T19:45:31.477Z,101822.56
2018-03-22T19:48:35.146Z,101818.54
2018-03-22T19:51:38.350Z,101821.72
2018-03-22T19:54:41.646Z,101817.17
2018-03-22T19:57:45.891Z,101819.55
2018-03-22T20:00:49.254Z,101816.63
2018-03-22T20:03:52.663Z,101814.70
2018-03-22T20:06:56.068Z,101815.04
2018-03-22T20:09:59.468Z,101810.47
2018-03-22T20:13:02.778Z,101811.07
2018-03-22T20:16:06.407Z,101807.43
2018-03-22T20:19:09.725Z,101806.79
2018-03-22T20:22:13.004Z,101805.84
2018-03-22T20:25:17.211Z,101802.76
2018-03-22T20:28:20.510Z,101804.05
2018-03-22T20:31:23.847Z,101797.09
2018-03-22T20:34:27.091Z,101803.48
2018-03-22T20:37:30.499Z,101803.53
2018-03-22T20:40:33.722Z,101801.28
2018-03-22T20:43:36.980Z,101803.31
2018-03-22T20:46:40.275Z,101802.54
2018-03-22T20:49:43.806Z,101798.97
2018-03-22T20:52:47.083Z,101800.18
2018-03-22T20:55:50.429Z,101801.40
2018-03-22T20:58:53.862Z,101793.89
2018-03-22T21:01:57.152Z,101794.58
2018-03-22T21:05:00.498Z,101792.59
2018-03-22T21:08:03.742Z,101791.92
2018-03-22T21:11:06.999Z,101787.32
2018-03-22T21:14:10.444Z,101781.19
2018-03-22T21:17:13.679Z,101780.30
2018-03-22T21:20:17.096Z,101781.52
2018-03-22T21:23:20.474Z,101779.39
2018-03-22T21:26:23.727Z,101780.25
2018-03-22T21:29:26.947Z,101773.52
2018-03-22T21:32:30.267Z,101771.32
2018-03-22T21:35:33.663Z,101765.35
2018-03-22T21:38:37.076Z,101767.43
2018-03-22T21:41:49.237Z,101766.35
2018-03-22T21:44:52.578Z,101765.68
2018-03-22T21:47:56.815Z,101761.94
2018-03-22T21:51:01.352Z,101760.02
2018-03-22T21:54:04.751Z,101757.71
2018-03-22T21:57:08.007Z,101759.74
2018-03-22T22:00:11.484Z,101753.90
2018-03-22T22:03:14.877Z,101749.00
2018-03-22T22:06:18.231Z,101745.38
2018-03-22T22:09:21.583Z,101749.95
2018-03-22T22:12:24.920Z,101742.73
2018-03-22T22:15:28.326Z,101736.70
2018-03-22T22:18:32.021Z,101727.72
2018-03-22T22:21:35.281Z,101725.02
2018-03-22T22:24:38.656Z,101718.36
2018-03-22T22:27:41.933Z,101716.11
2018-03-22T22:30:45.594Z,101716.25
2018-03-22T22:33:49.038Z,101716.04
2018-03-22T22:36:52.315Z,101712.74
2018-03-22T22:39:55.838Z,101706.42
2018-03-22T22:42:59.213Z,101710.99
2018-03-22T22:46:02.556Z,101700.65
2018-03-22T22:49:05.878Z,101698.48
2018-03-22T22:52:09.140Z,101698.58
2018-03-22T22:55:12.384Z,101697.82
2018-03-22T22:58:15.810Z,101697.72
2018-03-22T23:01:19.105Z,101694.57
2018-03-22T23:04:22.407Z,101695.46
2018-03-22T23:07:25.710Z,101691.82
2018-03-22T23:10:29.023Z,101690.83
2018-03-22T23:13:32.290Z,101683.40
2018-03-22T23:16:35.559Z,101684.07
2018-03-22T23:19:38.955Z,101687.59
2018-03-22T23:22:42.197Z,101692.71
2018-03-22T23:25:45.648Z,101686.66
2018-03-22T23:28:48.900Z,101685.77
2018-03-22T23:31:52.206Z,101682.88
2018-03-22T23:34:55.638Z,101680.98
2018-03-22T23:37:59.030Z,101681.22
2018-03-22T23:41:02.297Z,101675.21
2018-03-22T23:44:05.498Z,101675.98
2018-03-22T23:47:08.754Z,101679.16
2018-03-22T23:50:12.005Z,101680.26
2018-03-22T23:53:15.218Z,101678.56
2018-03-22T23:56:18.474Z,101672.08
2018-03-22T23:59:21.785Z,101672.07
